Time;durP1;ratioP1;P1;durP2;ratioP2;P2;SDS_P1;SDS_P2;PMS_P1;PMS_P2;Temp;Humidity;BMP_temperature;BMP_pressure;BME280_temperature;BME280_humidity;BME280_pressure;Samples;Min_cycle;Max_cycle;Signal;HPM_P1;HPM_P2
2022/11/30 00:00:10;;;;;;;;;;;17.60;54.90;;;;;;5157406;27;20355;-68
2022/11/30 00:02:35;;;;;;;;;;;17.60;54.90;;;;;;5157796;27;19919;-68
2022/11/30 00:05:01;;;;;;;;;;;17.60;55.00;;;;;;5157337;27;19923;-69
2022/11/30 00:07:27;;;;;;;;;;;17.60;55.00;;;;;;5157868;27;19923;-69
2022/11/30 00:09:52;;;;;;;;;;;17.60;55.00;;;;;;5157600;27;19969;-69
2022/11/30 00:12:18;;;;;;;;;;;17.60;55.00;;;;;;5175944;27;20001;-69
2022/11/30 00:14:43;;;;;;;;;;;17.50;54.90;;;;;;5157660;27;19932;-68
2022/11/30 00:17:09;;;;;;;;;;;17.50;54.90;;;;;;5175988;27;19932;-69
2022/11/30 00:19:34;;;;;;;;;;;17.50;54.90;;;;;;5175797;27;19919;-69
2022/11/30 00:22:00;;;;;;;;;;;17.50;55.00;;;;;;5157194;27;19919;-69
2022/11/30 00:24:25;;;;;;;;;;;17.50;55.10;;;;;;5175583;27;19984;-69
2022/11/30 00:26:51;;;;;;;;;;;17.50;55.10;;;;;;5156489;27;19923;-69
2022/11/30 00:29:16;;;;;;;;;;;17.40;55.10;;;;;;5156863;27;19926;-69
2022/11/30 00:31:42;;;;;;;;;;;17.40;55.20;;;;;;5175825;27;19986;-69
2022/11/30 00:34:07;;;;;;;;;;;17.40;55.30;;;;;;5175572;27;19919;-69
2022/11/30 00:36:33;;;;;;;;;;;17.40;55.30;;;;;;5157023;27;19927;-69
2022/11/30 00:38:58;;;;;;;;;;;17.40;55.30;;;;;;5156798;27;19918;-69
2022/11/30 00:41:24;;;;;;;;;;;17.40;55.40;;;;;;5175387;27;19919;-68
2022/11/30 00:43:50;;;;;;;;;;;17.30;55.40;;;;;;5157132;27;19918;-69
2022/11/30 00:46:15;;;;;;;;;;;17.40;55.50;;;;;;5156561;27;20342;-69
2022/11/30 00:48:41;;;;;;;;;;;17.30;55.50;;;;;;5175409;27;19919;-68
2022/11/30 00:51:08;;;;;;;;;;;17.30;55.50;;;;;;5175582;27;19958;-69
2022/11/30 00:53:34;;;;;;;;;;;17.30;55.50;;;;;;5156944;27;20357;-67
2022/11/30 00:55:59;;;;;;;;;;;17.30;55.50;;;;;;5156737;27;19923;-69
2022/11/30 00:58:25;;;;;;;;;;;17.20;55.50;;;;;;5156774;27;20318;-69
2022/11/30 01:00:51;;;;;;;;;;;17.20;55.60;;;;;;5174928;27;20266;-69
2022/11/30 01:03:16;;;;;;;;;;;17.20;55.60;;;;;;5156519;27;20282;-69
2022/11/30 01:05:42;;;;;;;;;;;17.20;55.50;;;;;;5156619;27;19955;-69
2022/11/30 01:08:08;;;;;;;;;;;17.20;55.60;;;;;;5156653;27;19918;-67
2022/11/30 01:10:34;;;;;;;;;;;17.20;55.60;;;;;;5156295;27;19919;-69
2022/11/30 01:13:00;;;;;;;;;;;17.10;55.60;;;;;;5156321;27;19919;-68
2022/11/30 01:15:26;;;;;;;;;;;17.10;55.60;;;;;;5174971;27;19929;-69
2022/11/30 01:17:51;;;;;;;;;;;17.20;55.60;;;;;;5156527;27;19943;-69
2022/11/30 01:20:17;;;;;;;;;;;17.20;55.70;;;;;;5156231;27;20297;-69
2022/11/30 01:22:42;;;;;;;;;;;17.10;55.60;;;;;;5174887;27;19958;-68
2022/11/30 01:25:08;;;;;;;;;;;17.00;55.60;;;;;;5156279;27;20330;-69
2022/11/30 01:27:34;;;;;;;;;;;17.10;55.60;;;;;;5174639;27;19930;-69
2022/11/30 01:29:59;;;;;;;;;;;17.10;55.70;;;;;;5174740;27;19919;-69
2022/11/30 01:32:25;;;;;;;;;;;17.10;55.70;;;;;;5156166;27;19919;-69
2022/11/30 01:34:50;;;;;;;;;;;17.10;55.70;;;;;;5174905;27;20059;-69
2022/11/30 01:37:16;;;;;;;;;;;17.10;55.70;;;;;;5174826;27;20001;-69
2022/11/30 01:39:41;;;;;;;;;;;17.00;55.90;;;;;;5174718;27;20432;-68
2022/11/30 01:42:15;;;;;;;;;;;17.00;55.70;;;;;;5174675;27;20005;-69
2022/11/30 01:47:33;;;;;;;;;;;17.00;55.70;;;;;;5110135;27;20411;-69
2022/11/30 01:50:09;;;;;;;;;;;17.00;55.70;;;;;;5108942;28;19920;-69
2022/11/30 01:52:37;;;;;;;;;;;17.00;55.80;;;;;;5109075;28;20368;-69
2022/11/30 01:55:13;;;;;;;;;;;17.00;55.80;;;;;;5092175;28;19920;-69
2022/11/30 01:57:43;;;;;;;;;;;16.90;55.80;;;;;;5108774;28;19920;-68
2022/11/30 02:00:11;;;;;;;;;;;17.00;55.80;;;;;;5110379;28;20374;-69
2022/11/30 02:02:55;;;;;;;;;;;16.90;55.80;;;;;;5108997;28;20283;-68
2022/11/30 02:05:21;;;;;;;;;;;16.90;55.80;;;;;;5109909;28;19979;-68
2022/11/30 02:07:47;;;;;;;;;;;16.90;55.80;;;;;;5108836;28;20007;-68
2022/11/30 02:10:14;;;;;;;;;;;16.80;55.80;;;;;;5109855;28;20363;-69
2022/11/30 02:15:53;;;;;;;;;;;17.00;55.80;;;;;;5129717;27;1862195;-68
2022/11/30 02:18:22;;;;;;;;;;;17.20;55.50;;;;;;5174065;27;19919;-69
2022/11/30 02:20:54;;;;;;;;;;;17.60;54.60;;;;;;5174773;27;19919;-69
2022/11/30 02:23:37;;;;;;;;;;;18.10;53.70;;;;;;5174295;27;19926;-69
2022/11/30 02:29:07;;;;;;;;;;;19.10;51.30;;;;;;5110173;27;19918;-69
2022/11/30 02:31:37;;;;;;;;;;;19.90;49.80;;;;;;5108387;28;19924;-69
2022/11/30 02:34:03;;;;;;;;;;;20.70;48.00;;;;;;5108798;28;19966;-68
2022/11/30 02:36:30;;;;;;;;;;;21.50;46.40;;;;;;5110170;28;19947;-68
2022/11/30 02:38:56;;;;;;;;;;;22.20;44.80;;;;;;5109029;28;19927;-67
2022/11/30 02:41:22;;;;;;;;;;;22.80;43.70;;;;;;5108696;28;20355;-69
2022/11/30 02:43:47;;;;;;;;;;;23.20;42.60;;;;;;5108714;28;19934;-68
2022/11/30 02:46:33;;;;;;;;;;;23.70;41.80;;;;;;5110105;28;20089;-68
2022/11/30 02:49:04;;;;;;;;;;;24.10;41.10;;;;;;5108663;28;19928;-67
2022/11/30 02:51:31;;;;;;;;;;;24.40;40.50;;;;;;5108631;28;20341;-68
2022/11/30 02:53:56;;;;;;;;;;;24.60;39.90;;;;;;5108433;28;19920;-68
2022/11/30 02:56:23;;;;;;;;;;;24.80;39.50;;;;;;5108745;28;20064;-68
2022/11/30 02:58:48;;;;;;;;;;;25.00;39.20;;;;;;5108712;28;19924;-68
2022/11/30 03:01:14;;;;;;;;;;;25.10;39.00;;;;;;5108312;28;19920;-69
2022/11/30 03:03:40;;;;;;;;;;;25.20;38.90;;;;;;5109775;28;19920;-68
2022/11/30 03:06:05;;;;;;;;;;;25.30;38.80;;;;;;5108569;28;19924;-67
2022/11/30 03:08:31;;;;;;;;;;;25.40;38.70;;;;;;5109430;28;20376;-68
2022/11/30 03:11:00;;;;;;;;;;;25.40;38.50;;;;;;5108428;28;20347;-68
2022/11/30 03:13:25;;;;;;;;;;;25.50;38.40;;;;;;5108447;28;20379;-68
2022/11/30 03:15:51;;;;;;;;;;;25.50;38.30;;;;;;5109366;28;19920;-69
2022/11/30 03:18:16;;;;;;;;;;;25.60;38.30;;;;;;5108356;28;19927;-68
2022/11/30 03:20:42;;;;;;;;;;;25.60;38.20;;;;;;5108346;28;19920;-68
2022/11/30 03:23:07;;;;;;;;;;;25.60;38.20;;;;;;5107943;28;19942;-69
2022/11/30 03:25:33;;;;;;;;;;;25.60;38.10;;;;;;5109061;28;19923;-68
2022/11/30 03:27:59;;;;;;;;;;;25.60;38.10;;;;;;5107563;28;19980;-69
2022/11/30 03:30:24;;;;;;;;;;;25.60;38.10;;;;;;5107718;28;19927;-69
2022/11/30 03:32:51;;;;;;;;;;;25.70;38.10;;;;;;5109337;28;19920;-69
2022/11/30 03:35:16;;;;;;;;;;;25.70;38.10;;;;;;5107933;28;19920;-68
2022/11/30 03:37:42;;;;;;;;;;;25.70;38.20;;;;;;5107985;28;20391;-68
2022/11/30 03:40:07;;;;;;;;;;;25.60;38.20;;;;;;5094403;28;20253;-69
2022/11/30 03:42:33;;;;;;;;;;;25.50;38.20;;;;;;5077324;28;19920;-69
2022/11/30 03:44:58;;;;;;;;;;;25.40;38.30;;;;;;5094019;28;19924;-68
2022/11/30 03:47:24;;;;;;;;;;;25.30;38.50;;;;;;5095039;28;19924;-68
2022/11/30 03:49:49;;;;;;;;;;;25.20;38.70;;;;;;5093921;28;20383;-68
2022/11/30 03:52:15;;;;;;;;;;;25.10;38.90;;;;;;5094005;28;19973;-69
2022/11/30 03:54:40;;;;;;;;;;;24.90;39.00;;;;;;5095057;28;19920;-68
2022/11/30 03:57:06;;;;;;;;;;;24.90;39.30;;;;;;5093668;28;19974;-68
2022/11/30 03:59:31;;;;;;;;;;;24.80;39.20;;;;;;5095119;28;19920;-68
2022/11/30 04:01:57;;;;;;;;;;;24.90;39.20;;;;;;5095013;28;20367;-68
2022/11/30 04:04:22;;;;;;;;;;;24.90;39.10;;;;;;5094928;28;19920;-68
2022/11/30 04:06:48;;;;;;;;;;;25.00;39.00;;;;;;5093419;28;19928;-68
2022/11/30 04:09:13;;;;;;;;;;;25.10;38.90;;;;;;5094821;28;19920;-68
2022/11/30 04:11:39;;;;;;;;;;;25.20;38.90;;;;;;5094592;28;19980;-68
2022/11/30 04:14:05;;;;;;;;;;;25.20;38.60;;;;;;5093421;28;20013;-68
2022/11/30 04:16:30;;;;;;;;;;;25.30;38.60;;;;;;5093623;28;19927;-68
2022/11/30 04:18:56;;;;;;;;;;;25.30;38.50;;;;;;5093635;28;20430;-68
2022/11/30 04:21:21;;;;;;;;;;;25.30;38.40;;;;;;5093744;28;19921;-68
2022/11/30 04:23:47;;;;;;;;;;;25.40;38.40;;;;;;5093170;28;20353;-69
2022/11/30 04:26:13;;;;;;;;;;;25.50;38.40;;;;;;5093431;28;19935;-69
2022/11/30 04:28:42;;;;;;;;;;;25.50;38.30;;;;;;5092715;28;19971;-68
2022/11/30 04:31:08;;;;;;;;;;;25.40;38.40;;;;;;5093290;28;20253;-68
2022/11/30 04:33:34;;;;;;;;;;;25.40;38.40;;;;;;5093285;28;19927;-68
2022/11/30 04:36:00;;;;;;;;;;;25.40;38.40;;;;;;5092921;28;19928;-69
2022/11/30 04:38:26;;;;;;;;;;;25.30;38.40;;;;;;5093213;28;19920;-68
2022/11/30 04:40:52;;;;;;;;;;;25.30;38.60;;;;;;5092868;28;20417;-68
2022/11/30 04:43:18;;;;;;;;;;;25.20;38.50;;;;;;5093085;28;19920;-69
2022/11/30 04:45:44;;;;;;;;;;;25.20;38.60;;;;;;5094080;28;19923;-68
2022/11/30 04:48:10;;;;;;;;;;;25.10;38.70;;;;;;5093857;28;19924;-68
2022/11/30 04:50:35;;;;;;;;;;;25.10;38.80;;;;;;5091758;28;19927;-69
2022/11/30 04:53:01;;;;;;;;;;;25.00;38.80;;;;;;5092609;28;19969;-68
2022/11/30 04:55:27;;;;;;;;;;;25.00;38.90;;;;;;5092954;28;19962;-68
2022/11/30 04:57:52;;;;;;;;;;;24.90;38.90;;;;;;5092423;28;19952;-68
2022/11/30 05:00:18;;;;;;;;;;;24.90;39.00;;;;;;5092836;28;20133;-68
2022/11/30 05:02:44;;;;;;;;;;;24.90;39.00;;;;;;5092826;28;20299;-68
2022/11/30 05:05:09;;;;;;;;;;;24.90;39.10;;;;;;5092364;28;19965;-67
2022/11/30 05:07:35;;;;;;;;;;;24.90;39.10;;;;;;5092335;28;19930;-67
2022/11/30 05:10:00;;;;;;;;;;;24.90;39.00;;;;;;5092277;28;19963;-68
2022/11/30 05:12:26;;;;;;;;;;;24.90;39.10;;;;;;5093529;28;19927;-69
2022/11/30 05:14:51;;;;;;;;;;;24.90;39.00;;;;;;5092145;28;19920;-68
2022/11/30 05:17:17;;;;;;;;;;;25.00;38.90;;;;;;5093450;28;19989;-68
2022/11/30 05:19:42;;;;;;;;;;;25.10;38.90;;;;;;5092391;28;19943;-68
2022/11/30 05:22:08;;;;;;;;;;;25.10;38.70;;;;;;5092450;28;19927;-68
2022/11/30 05:24:33;;;;;;;;;;;25.20;38.60;;;;;;5091949;28;19969;-68
2022/11/30 05:26:59;;;;;;;;;;;25.30;39.20;;;;;;5098521;28;19924;-68
2022/11/30 05:29:24;;;;;;;;;;;25.40;38.40;;;;;;5095439;28;19919;-69
2022/11/30 05:31:50;;;;;;;;;;;25.50;38.30;;;;;;5095602;28;19919;-69
2022/11/30 05:34:16;;;;;;;;;;;25.50;38.30;;;;;;5113641;28;20337;-68
2022/11/30 05:36:41;;;;;;;;;;;25.50;38.30;;;;;;5095309;28;20388;-68
2022/11/30 05:39:07;;;;;;;;;;;25.50;38.20;;;;;;5095203;28;19920;-68
2022/11/30 05:41:32;;;;;;;;;;;25.50;38.20;;;;;;5113307;28;19923;-68
2022/11/30 05:43:58;;;;;;;;;;;25.40;38.30;;;;;;5095406;28;20322;-69
2022/11/30 05:46:23;;;;;;;;;;;25.20;38.30;;;;;;5113121;28;19924;-68
2022/11/30 05:48:49;;;;;;;;;;;25.20;38.50;;;;;;5094974;28;19924;-67
2022/11/30 05:51:16;;;;;;;;;;;25.10;38.60;;;;;;5094898;28;19986;-68
2022/11/30 05:53:42;;;;;;;;;;;25.10;38.70;;;;;;5095336;28;20010;-69
2022/11/30 05:56:10;;;;;;;;;;;25.00;38.80;;;;;;5095258;28;19920;-68
2022/11/30 05:58:35;;;;;;;;;;;24.90;38.90;;;;;;5095120;28;20291;-68
2022/11/30 06:01:01;;;;;;;;;;;24.80;39.10;;;;;;5094632;28;19926;-68
2022/11/30 06:03:28;;;;;;;;;;;24.70;39.10;;;;;;5094719;28;19927;-68
2022/11/30 06:05:53;;;;;;;;;;;24.70;39.20;;;;;;5112953;28;20003;-69
2022/11/30 06:08:19;;;;;;;;;;;24.70;39.20;;;;;;5113015;28;20061;-68
2022/11/30 06:10:44;;;;;;;;;;;24.70;39.30;;;;;;5094760;28;20383;-68
2022/11/30 06:13:10;;;;;;;;;;;24.70;39.30;;;;;;5095000;28;19920;-68
2022/11/30 06:15:36;;;;;;;;;;;24.70;39.30;;;;;;5094804;28;20367;-69
2022/11/30 06:18:02;;;;;;;;;;;24.70;39.20;;;;;;5094645;28;19920;-68
2022/11/30 06:20:28;;;;;;;;;;;24.70;39.20;;;;;;5078096;28;19919;-68
2022/11/30 06:22:53;;;;;;;;;;;24.70;39.20;;;;;;5094580;28;19965;-68
2022/11/30 06:25:19;;;;;;;;;;;24.60;39.20;;;;;;5112831;28;19974;-68
2022/11/30 06:27:45;;;;;;;;;;;24.70;39.20;;;;;;5094102;28;19924;-69
2022/11/30 06:30:11;;;;;;;;;;;24.70;39.20;;;;;;5094423;28;19920;-69
2022/11/30 06:32:36;;;;;;;;;;;24.70;39.20;;;;;;5094432;28;19927;-68
2022/11/30 06:35:02;;;;;;;;;;;24.70;39.10;;;;;;5094760;28;19973;-68
2022/11/30 06:37:27;;;;;;;;;;;24.70;39.20;;;;;;5094360;28;20344;-68
2022/11/30 06:39:53;;;;;;;;;;;24.70;39.00;;;;;;5109393;28;19920;-66
2022/11/30 06:42:18;;;;;;;;;;;24.80;39.00;;;;;;5111199;28;19924;-66
2022/11/30 06:44:44;;;;;;;;;;;24.70;38.90;;;;;;5110980;28;20554;-66
2022/11/30 06:47:10;;;;;;;;;;;24.70;39.10;;;;;;5089509;28;19947;-66
2022/11/30 06:49:36;;;;;;;;;;;24.60;39.30;;;;;;5108477;28;19919;-66
2022/11/30 06:52:01;;;;;;;;;;;24.60;39.40;;;;;;5088434;28;19920;-66
2022/11/30 06:54:27;;;;;;;;;;;24.70;39.50;;;;;;5088227;28;20142;-65
2022/11/30 06:56:52;;;;;;;;;;;24.80;39.40;;;;;;5105679;28;19927;-66
2022/11/30 06:59:18;;;;;;;;;;;25.10;39.20;;;;;;5107380;28;20362;-66
2022/11/30 07:01:43;;;;;;;;;;;25.30;38.70;;;;;;5088968;28;19920;-66
2022/11/30 07:04:09;;;;;;;;;;;25.40;38.50;;;;;;5086679;28;19977;-65
2022/11/30 07:06:35;;;;;;;;;;;25.40;38.40;;;;;;5084304;28;20410;-66
2022/11/30 07:09:00;;;;;;;;;;;25.60;38.40;;;;;;5084817;28;19919;-66
2022/11/30 07:11:26;;;;;;;;;;;25.60;38.40;;;;;;5083003;28;20671;-66
2022/11/30 07:13:51;;;;;;;;;;;25.80;38.30;;;;;;5079283;28;20578;-66
2022/11/30 07:16:17;;;;;;;;;;;25.90;38.10;;;;;;5108473;28;19984;-68
2022/11/30 07:18:42;;;;;;;;;;;26.10;37.90;;;;;;5089523;28;19927;-65
2022/11/30 07:21:08;;;;;;;;;;;26.10;37.70;;;;;;5067508;28;19982;-69
2022/11/30 07:26:21;;;;;;;;;;;25.70;38.20;;;;;;5093456;28;20291;-70
2022/11/30 07:28:48;;;;;;;;;;;25.20;38.80;;;;;;5100707;27;20341;-69
2022/11/30 07:31:17;;;;;;;;;;;24.80;39.30;;;;;;5095073;28;19935;-71
2022/11/30 07:33:43;;;;;;;;;;;24.40;39.80;;;;;;5079310;27;20032;-71
2022/11/30 07:36:09;;;;;;;;;;;24.20;40.30;;;;;;5086523;28;19934;-71
2022/11/30 07:38:35;;;;;;;;;;;24.00;40.50;;;;;;5079139;28;19930;-69
2022/11/30 07:41:01;;;;;;;;;;;24.10;40.70;;;;;;5081376;28;20395;-70
2022/11/30 07:43:27;;;;;;;;;;;24.40;40.60;;;;;;5098261;28;19924;-66
2022/11/30 07:45:53;;;;;;;;;;;24.70;40.00;;;;;;5080848;28;19920;-70
2022/11/30 07:48:19;;;;;;;;;;;24.90;39.50;;;;;;5097987;28;20024;-72
2022/11/30 07:50:45;;;;;;;;;;;25.10;39.30;;;;;;5083472;28;20003;-70
2022/11/30 07:53:10;;;;;;;;;;;25.10;39.20;;;;;;5083368;28;20422;-74
2022/11/30 07:55:36;;;;;;;;;;;25.20;39.20;;;;;;5095675;28;19990;-70
2022/11/30 07:58:02;;;;;;;;;;;25.40;39.40;;;;;;5084167;28;20043;-71
2022/11/30 08:00:27;;;;;;;;;;;25.40;39.30;;;;;;5109863;27;19966;-70
2022/11/30 08:02:53;;;;;;;;;;;25.50;39.30;;;;;;5079987;28;19927;-72
2022/11/30 08:05:18;;;;;;;;;;;25.50;39.30;;;;;;5081508;28;19924;-70
2022/11/30 08:07:44;;;;;;;;;;;25.30;39.10;;;;;;5083434;28;19946;-70
2022/11/30 08:10:10;;;;;;;;;;;24.90;39.30;;;;;;5114606;27;19953;-71
2022/11/30 08:12:36;;;;;;;;;;;24.60;40.00;;;;;;5076603;28;19931;-70
2022/11/30 08:15:01;;;;;;;;;;;24.30;40.60;;;;;;5075596;28;19920;-72
2022/11/30 08:17:27;;;;;;;;;;;24.20;41.10;;;;;;5077549;28;19941;-72
2022/11/30 08:19:53;;;;;;;;;;;24.10;41.20;;;;;;5097859;28;20008;-73
2022/11/30 08:22:18;;;;;;;;;;;24.30;41.10;;;;;;5095740;28;19931;-71
2022/11/30 08:24:44;;;;;;;;;;;24.30;40.90;;;;;;5074370;28;19928;-71
2022/11/30 08:27:09;;;;;;;;;;;24.10;41.00;;;;;;5096975;28;19940;-72
2022/11/30 08:29:35;;;;;;;;;;;23.90;41.50;;;;;;5111369;27;19923;-71
2022/11/30 08:32:00;;;;;;;;;;;23.90;41.70;;;;;;5074085;28;19931;-73
2022/11/30 08:34:26;;;;;;;;;;;23.80;42.00;;;;;;5109124;27;20806;-72
2022/11/30 08:36:51;;;;;;;;;;;23.70;42.40;;;;;;5108569;27;19930;-71
2022/11/30 08:39:17;;;;;;;;;;;23.70;42.50;;;;;;5105808;27;20303;-70
2022/11/30 08:41:42;;;;;;;;;;;23.70;42.50;;;;;;5074662;28;19930;-70
2022/11/30 08:44:08;;;;;;;;;;;23.90;42.40;;;;;;5073507;28;19927;-72
2022/11/30 08:46:33;;;;;;;;;;;23.90;42.40;;;;;;5074985;28;19920;-74
2022/11/30 08:48:59;;;;;;;;;;;24.30;42.30;;;;;;5076942;28;19951;-72
2022/11/30 08:51:24;;;;;;;;;;;24.70;41.60;;;;;;5080098;28;19939;-72
2022/11/30 08:53:50;;;;;;;;;;;25.10;40.80;;;;;;5098135;28;19930;-73
2022/11/30 08:56:17;;;;;;;;;;;25.20;40.20;;;;;;5078433;28;20301;-67
2022/11/30 08:58:43;;;;;;;;;;;25.10;40.10;;;;;;5108389;27;19920;-69
2022/11/30 09:01:12;;;;;;;;;;;24.90;40.30;;;;;;5097176;28;19928;-71
2022/11/30 09:03:38;;;;;;;;;;;24.80;40.60;;;;;;5099386;28;19928;-71
2022/11/30 09:06:05;;;;;;;;;;;24.70;41.10;;;;;;5075639;28;19924;-67
2022/11/30 09:08:31;;;;;;;;;;;24.70;41.30;;;;;;5075637;28;20318;-72
2022/11/30 09:10:56;;;;;;;;;;;24.50;41.20;;;;;;5092963;28;19980;-72
2022/11/30 09:13:22;;;;;;;;;;;24.70;41.30;;;;;;5077007;28;20371;-71
2022/11/30 09:15:55;;;;;;;;;;;24.90;41.00;;;;;;5092975;28;19938;-71
2022/11/30 09:18:20;;;;;;;;;;;25.10;40.70;;;;;;5091201;28;20000;-70
2022/11/30 09:20:46;;;;;;;;;;;25.10;40.50;;;;;;5083440;28;19924;-70
2022/11/30 09:23:11;;;;;;;;;;;25.00;40.50;;;;;;5075402;28;19920;-71
2022/11/30 09:25:40;;;;;;;;;;;24.80;40.70;;;;;;5078278;28;20016;-71
2022/11/30 09:28:05;;;;;;;;;;;24.70;41.00;;;;;;5094697;28;20394;-70
2022/11/30 09:30:31;;;;;;;;;;;24.70;41.00;;;;;;5097596;28;19920;-70
2022/11/30 09:32:58;;;;;;;;;;;24.60;41.00;;;;;;5075783;28;19920;-72
2022/11/30 09:35:23;;;;;;;;;;;24.50;41.00;;;;;;5107900;27;20302;-73
2022/11/30 09:37:49;;;;;;;;;;;24.40;41.00;;;;;;5073559;28;19923;-72
2022/11/30 09:40:16;;;;;;;;;;;24.20;41.20;;;;;;5095935;28;19936;-75
2022/11/30 09:42:47;;;;;;;;;;;24.10;41.30;;;;;;5112317;27;20836;-71
2022/11/30 09:45:19;;;;;;;;;;;24.10;41.40;;;;;;5073373;28;20005;-71
2022/11/30 09:48:05;;;;;;;;;;;23.90;41.50;;;;;;5090410;28;19950;-70
2022/11/30 09:50:32;;;;;;;;;;;23.70;41.90;;;;;;5094284;28;19931;-72
2022/11/30 09:53:00;;;;;;;;;;;23.60;42.00;;;;;;5071029;28;19924;-72
2022/11/30 09:55:28;;;;;;;;;;;23.70;42.10;;;;;;5071137;28;20441;-65
2022/11/30 09:57:57;;;;;;;;;;;23.90;42.00;;;;;;5089851;28;19920;-75
2022/11/30 10:00:23;;;;;;;;;;;24.00;41.70;;;;;;5094548;28;19928;-70
2022/11/30 10:02:50;;;;;;;;;;;24.10;41.60;;;;;;5109514;27;20015;-71
2022/11/30 10:08:15;;;;;;;;;;;24.60;41.10;;;;;;5083826;27;19924;-72
2022/11/30 10:10:45;;;;;;;;;;;24.90;40.70;;;;;;5080130;28;19960;-71
2022/11/30 10:13:30;;;;;;;;;;;25.00;40.30;;;;;;5107835;27;19966;-68
2022/11/30 10:18:43;;;;;;;;;;;25.00;40.20;;;;;;5092348;27;19917;-72
2022/11/30 10:21:20;;;;;;;;;;;25.00;40.30;;;;;;5052925;28;20016;-71
2022/11/30 10:26:34;;;;;;;;;;;24.80;40.40;;;;;;5084642;27;20572;-74
2022/11/30 10:29:09;;;;;;;;;;;24.50;40.70;;;;;;5102142;28;19925;-75
2022/11/30 10:31:36;;;;;;;;;;;23.70;40.90;;;;;;5070772;28;20021;-72
2022/11/30 10:34:11;;;;;;;;;;;24.30;41.70;;;;;;5100705;28;19928;-73
2022/11/30 10:36:39;;;;;;;;;;;24.10;42.10;;;;;;5070457;28;19931;-71
2022/11/30 10:39:09;;;;;;;;;;;23.90;42.50;;;;;;5107338;28;19929;-68
2022/11/30 10:41:41;;;;;;;;;;;23.70;42.80;;;;;;5073077;28;19921;-72
2022/11/30 10:44:23;;;;;;;;;;;23.50;43.20;;;;;;5075005;28;20964;-70
2022/11/30 10:46:56;;;;;;;;;;;23.40;43.60;;;;;;5071607;28;19925;-64
2022/11/30 10:49:24;;;;;;;;;;;23.20;44.10;;;;;;5072168;28;19920;-68
2022/11/30 10:51:52;;;;;;;;;;;23.10;44.30;;;;;;5072084;28;19969;-68
2022/11/30 10:54:19;;;;;;;;;;;22.90;44.50;;;;;;5073921;28;19942;-73
2022/11/30 10:56:46;;;;;;;;;;;22.60;44.80;;;;;;5069247;28;19982;-69
2022/11/30 11:01:53;;;;;;;;;;;22.30;45.40;;;;;;5091110;27;19912;-69
2022/11/30 11:04:21;;;;;;;;;;;22.20;45.60;;;;;;5084746;28;20364;-69
2022/11/30 11:06:53;;;;;;;;;;;22.00;45.50;;;;;;5092177;28;20305;-66
2022/11/30 11:09:39;;;;;;;;;;;21.90;45.50;;;;;;5085248;28;19959;-68
2022/11/30 11:12:13;;;;;;;;;;;21.90;45.50;;;;;;5118436;27;19931;-71
2022/11/30 11:14:38;;;;;;;;;;;21.80;45.60;;;;;;5082394;28;20010;-68
2022/11/30 11:17:05;;;;;;;;;;;21.70;45.90;;;;;;5088003;28;20011;-73
2022/11/30 11:19:35;;;;;;;;;;;21.50;46.30;;;;;;5081903;28;19951;-73
2022/11/30 11:22:04;;;;;;;;;;;21.40;46.60;;;;;;5075388;28;19920;-72
2022/11/30 11:24:30;;;;;;;;;;;21.30;46.90;;;;;;5110383;27;20003;-69
2022/11/30 11:26:56;;;;;;;;;;;21.20;47.10;;;;;;5070716;28;20490;-70
2022/11/30 11:29:30;;;;;;;;;;;21.10;47.40;;;;;;5113964;27;19924;-71
2022/11/30 11:32:15;;;;;;;;;;;21.00;47.60;;;;;;5088867;28;19986;-71
2022/11/30 11:34:42;;;;;;;;;;;20.90;47.70;;;;;;5088556;28;19942;-68
2022/11/30 11:42:46;;;;;;;;;;;20.60;47.40;;;;;;5090817;27;1856366;-70
2022/11/30 11:45:21;;;;;;;;;;;20.60;47.40;;;;;;5149098;27;20510;-72
2022/11/30 11:47:55;;;;;;;;;;;20.60;47.50;;;;;;5140915;27;19995;-71
2022/11/30 11:53:23;;;;;;;;;;;20.50;48.00;;;;;;5070616;28;19917;-72
2022/11/30 11:58:49;;;;;;;;;;;20.40;48.10;;;;;;5093112;27;19916;-67
2022/11/30 12:01:18;;;;;;;;;;;20.40;48.00;;;;;;5088104;28;19956;-72
2022/11/30 12:03:50;;;;;;;;;;;20.30;48.10;;;;;;5087800;28;20353;-72
2022/11/30 12:06:17;;;;;;;;;;;20.30;48.20;;;;;;5095561;28;19932;-71
2022/11/30 12:08:49;;;;;;;;;;;20.40;48.40;;;;;;5085877;28;19967;-69
2022/11/30 12:11:17;;;;;;;;;;;20.30;48.40;;;;;;5089587;28;20588;-71
2022/11/30 12:13:44;;;;;;;;;;;20.20;48.60;;;;;;5089591;28;19928;-69
2022/11/30 12:21:54;;;;;;;;;;;20.10;49.10;;;;;;5084527;27;19923;-71
2022/11/30 12:29:46;;;;;;;;;;;20.10;49.70;;;;;;5111146;27;1894522;-76
2022/11/30 12:32:21;;;;;;;;;;;20.00;49.80;;;;;;5149457;27;19918;-74
2022/11/30 12:37:44;;;;;;;;;;;20.00;50.20;;;;;;5091523;27;1856296;-69
2022/11/30 12:40:29;;;;;;;;;;;20.00;50.40;;;;;;5119213;27;20438;-74
2022/11/30 12:45:43;;;;;;;;;;;20.00;51.10;;;;;;5056982;28;20003;-69
2022/11/30 12:48:28;;;;;;;;;;;20.70;50.20;;;;;;5036656;28;19943;-71
2022/11/30 12:53:36;;;;;;;;;;;22.60;46.40;;;;;;5110617;27;1864348;-70
2022/11/30 13:04:39;;;;;;;;;;;25.70;40.30;;;;;;5105701;27;19916;-68
2022/11/30 13:07:11;;;;;;;;;;;26.00;39.10;;;;;;5086297;28;19927;-68
2022/11/30 13:09:40;;;;;;;;;;;26.10;38.70;;;;;;5089712;28;20529;-69
2022/11/30 13:12:09;;;;;;;;;;;25.90;38.70;;;;;;5089676;28;20376;-70
2022/11/30 13:14:35;;;;;;;;;;;25.70;38.60;;;;;;5089634;28;19946;-68
2022/11/30 13:17:02;;;;;;;;;;;25.50;38.70;;;;;;5087473;28;19927;-69
2022/11/30 13:19:43;;;;;;;;;;;25.20;39.00;;;;;;5088944;28;19966;-70
2022/11/30 13:22:14;;;;;;;;;;;25.00;39.50;;;;;;5087622;28;19932;-68
2022/11/30 13:24:44;;;;;;;;;;;24.80;39.70;;;;;;5102650;28;19924;-69
2022/11/30 13:27:16;;;;;;;;;;;24.70;40.00;;;;;;5088559;28;20007;-71
2022/11/30 13:30:02;;;;;;;;;;;24.70;40.20;;;;;;5089463;28;19920;-70
2022/11/30 13:32:31;;;;;;;;;;;24.60;40.20;;;;;;5089169;28;19920;-68
2022/11/30 13:35:17;;;;;;;;;;;24.40;40.30;;;;;;5107955;28;19931;-71
2022/11/30 13:37:42;;;;;;;;;;;24.30;40.80;;;;;;5105822;28;19927;-71
2022/11/30 13:40:23;;;;;;;;;;;24.40;41.00;;;;;;5106900;28;19920;-70
2022/11/30 13:42:54;;;;;;;;;;;24.40;40.80;;;;;;5105845;28;20275;-67
2022/11/30 13:45:25;;;;;;;;;;;24.40;40.70;;;;;;5088888;28;19920;-69
2022/11/30 13:47:52;;;;;;;;;;;24.30;40.80;;;;;;5106663;28;19927;-68
2022/11/30 13:50:37;;;;;;;;;;;24.00;41.00;;;;;;5089547;28;19924;-68
2022/11/30 13:55:48;;;;;;;;;;;23.60;41.60;;;;;;5086033;28;19921;-69
2022/11/30 13:58:16;;;;;;;;;;;23.40;42.00;;;;;;5063543;28;20011;-70
2022/11/30 14:06:03;;;;;;;;;;;23.30;42.70;;;;;;5086530;28;19952;-68
2022/11/30 14:08:31;;;;;;;;;;;23.20;42.50;;;;;;5078424;28;19927;-68
2022/11/30 14:11:16;;;;;;;;;;;23.10;42.60;;;;;;5065697;28;19927;-70
2022/11/30 14:13:43;;;;;;;;;;;23.00;42.90;;;;;;5085031;28;19920;-71
2022/11/30 14:16:26;;;;;;;;;;;22.90;43.20;;;;;;5070856;28;20434;-71
2022/11/30 14:18:52;;;;;;;;;;;22.80;43.30;;;;;;5073862;28;20300;-70
2022/11/30 14:21:21;;;;;;;;;;;22.70;43.50;;;;;;5089084;28;19920;-70
2022/11/30 14:26:33;;;;;;;;;;;22.50;43.90;;;;;;5114803;27;1867637;-68
2022/11/30 14:29:02;;;;;;;;;;;22.40;44.20;;;;;;5143176;27;20426;-69
2022/11/30 14:31:30;;;;;;;;;;;22.30;44.30;;;;;;5146924;27;19972;-71
2022/11/30 14:34:15;;;;;;;;;;;22.20;44.40;;;;;;5149413;27;19966;-69
2022/11/30 14:36:43;;;;;;;;;;;22.10;44.60;;;;;;5151240;27;20613;-71
2022/11/30 14:39:29;;;;;;;;;;;22.10;44.80;;;;;;5148122;27;19919;-71
2022/11/30 14:41:54;;;;;;;;;;;22.00;45.00;;;;;;5151462;27;19919;-71
2022/11/30 14:44:20;;;;;;;;;;;22.00;45.20;;;;;;5135968;27;19923;-68
2022/11/30 14:46:45;;;;;;;;;;;22.00;45.00;;;;;;5131909;27;19925;-70
2022/11/30 14:49:19;;;;;;;;;;;22.10;45.00;;;;;;5131810;27;19921;-67
2022/11/30 14:51:48;;;;;;;;;;;22.10;44.80;;;;;;5151054;27;20535;-70
2022/11/30 14:54:33;;;;;;;;;;;22.10;44.80;;;;;;5150514;27;19975;-70
2022/11/30 14:57:12;;;;;;;;;;;22.10;44.70;;;;;;5149956;27;19966;-70
2022/11/30 14:59:43;;;;;;;;;;;22.10;44.70;;;;;;5133762;27;19919;-70
2022/11/30 15:02:18;;;;;;;;;;;22.00;44.70;;;;;;5152345;27;20370;-70
2022/11/30 15:04:45;;;;;;;;;;;22.00;44.70;;;;;;5152416;27;19923;-68
2022/11/30 15:07:12;;;;;;;;;;;22.00;44.80;;;;;;5152465;27;20384;-70
2022/11/30 15:09:41;;;;;;;;;;;21.90;44.70;;;;;;5170776;27;19919;-70
2022/11/30 15:12:06;;;;;;;;;;;21.80;44.80;;;;;;5152690;27;19926;-70
2022/11/30 15:14:32;;;;;;;;;;;21.70;44.90;;;;;;5151878;27;19919;-69
2022/11/30 15:16:57;;;;;;;;;;;21.70;45.00;;;;;;5149457;27;19926;-70
2022/11/30 15:19:25;;;;;;;;;;;21.60;45.10;;;;;;5151934;27;19926;-70
2022/11/30 15:21:51;;;;;;;;;;;21.50;45.30;;;;;;5170691;27;19976;-67
2022/11/30 15:24:17;;;;;;;;;;;21.40;45.50;;;;;;5151851;27;20025;-69
2022/11/30 15:26:49;;;;;;;;;;;21.30;45.50;;;;;;5170927;27;20005;-70
2022/11/30 15:29:19;;;;;;;;;;;21.20;45.70;;;;;;5170485;27;20421;-70
2022/11/30 15:31:47;;;;;;;;;;;21.10;45.80;;;;;;5170364;27;19958;-71